createdAt,value
2022-12-18T00:01:35.296Z,-2.56
2022-12-18T00:04:12.191Z,-2.53
2022-12-18T00:06:39.808Z,-2.48
2022-12-18T00:09:10.013Z,-2.45
2022-12-18T00:11:37.612Z,-2.45
2022-12-18T00:14:05.301Z,-2.42
2022-12-18T00:16:33.087Z,-2.39
2022-12-18T00:19:01.103Z,-2.37
2022-12-18T00:21:30.034Z,-2.33
2022-12-18T00:23:58.759Z,-2.33
2022-12-18T00:26:32.042Z,-2.35
2022-12-18T00:29:05.292Z,-2.36
2022-12-18T00:31:34.009Z,-2.36
2022-12-18T00:34:02.149Z,-2.37
2022-12-18T00:36:33.368Z,-2.38
2022-12-18T00:39:03.028Z,-2.39
2022-12-18T00:41:30.653Z,-2.41
2022-12-18T00:43:58.217Z,-2.40
2022-12-18T00:46:25.783Z,-2.44
2022-12-18T00:48:53.466Z,-2.48
2022-12-18T00:51:21.364Z,-2.48
2022-12-18T00:53:48.992Z,-2.49
2022-12-18T00:56:16.579Z,-2.49
2022-12-18T00:58:44.189Z,-2.48
2022-12-18T01:01:11.841Z,-2.45
2022-12-18T01:03:39.774Z,-2.42
2022-12-18T01:06:11.055Z,-2.40
2022-12-18T01:08:39.685Z,-2.40
2022-12-18T01:11:13.112Z,-2.43
2022-12-18T01:13:41.767Z,-2.45
2022-12-18T01:16:13.048Z,-2.47
2022-12-18T01:18:40.809Z,-2.48
2022-12-18T01:21:10.652Z,-2.48
2022-12-18T01:23:38.862Z,-2.47
2022-12-18T01:26:16.735Z,-2.47
2022-12-18T01:28:45.044Z,-2.48
2022-12-18T01:31:12.739Z,-2.46
2022-12-18T01:33:40.782Z,-2.43
2022-12-18T01:36:09.635Z,-2.41
2022-12-18T01:38:37.193Z,-2.42
2022-12-18T01:41:04.798Z,-2.43
2022-12-18T01:43:46.863Z,-2.44
2022-12-18T01:46:15.542Z,-2.45
2022-12-18T01:48:44.791Z,-2.43
2022-12-18T01:51:13.443Z,-2.42
2022-12-18T01:53:43.635Z,-2.43
2022-12-18T01:56:15.538Z,-2.43
2022-12-18T01:58:59.399Z,-2.40
2022-12-18T02:01:27.302Z,-2.39
2022-12-18T02:03:55.020Z,-2.38
2022-12-18T02:06:38.813Z,-2.36
2022-12-18T02:09:16.080Z,-2.32
2022-12-18T02:12:00.556Z,-2.30
2022-12-18T02:14:48.077Z,-2.28
2022-12-18T02:17:38.202Z,-2.29
2022-12-18T02:20:32.995Z,-2.33
2022-12-18T02:23:28.430Z,-2.37
2022-12-18T02:26:16.224Z,-2.37
2022-12-18T02:28:50.179Z,-2.35
2022-12-18T02:31:24.377Z,-2.32
2022-12-18T02:33:56.105Z,-2.28
2022-12-18T02:36:26.476Z,-2.26
2022-12-18T02:38:56.549Z,-2.28
2022-12-18T02:41:24.757Z,-2.34
2022-12-18T02:44:02.971Z,-2.39
2022-12-18T02:46:37.558Z,-2.39
2022-12-18T02:49:22.955Z,-2.39
2022-12-18T02:52:01.012Z,-2.43
2022-12-18T02:54:52.829Z,-2.47
2022-12-18T02:57:31.409Z,-2.53
2022-12-18T03:00:09.379Z,-2.55
2022-12-18T03:02:45.798Z,-2.54
2022-12-18T03:05:35.864Z,-2.52
2022-12-18T03:08:19.725Z,-2.50
2022-12-18T03:10:57.112Z,-2.49
2022-12-18T03:13:35.818Z,-2.48
2022-12-18T03:16:08.089Z,-2.48
2022-12-18T03:18:51.046Z,-2.49
2022-12-18T03:21:24.240Z,-2.53
2022-12-18T03:23:54.403Z,-2.57
2022-12-18T03:26:26.278Z,-2.64
2022-12-18T03:29:08.952Z,-2.70
2022-12-18T03:31:40.949Z,-2.73
2022-12-18T03:34:18.294Z,-2.78
2022-12-18T03:36:46.206Z,-2.82
2022-12-18T03:39:14.066Z,-2.85
2022-12-18T03:42:07.852Z,-2.91
2022-12-18T03:44:41.397Z,-2.94
2022-12-18T03:47:11.552Z,-2.98
2022-12-18T03:49:48.232Z,-3.03
2022-12-18T03:52:34.307Z,-3.07
2022-12-18T03:55:04.390Z,-3.12
2022-12-18T03:57:33.889Z,-3.14
2022-12-18T04:00:06.911Z,-3.15
2022-12-18T04:02:37.115Z,-3.19
2022-12-18T04:05:07.644Z,-3.21
2022-12-18T04:07:36.401Z,-3.21
2022-12-18T04:10:06.364Z,-3.24
2022-12-18T04:12:33.961Z,-3.28
2022-12-18T04:15:01.549Z,-3.31
2022-12-18T04:17:29.180Z,-3.33
2022-12-18T04:19:56.762Z,-3.33
2022-12-18T04:22:24.340Z,-3.32
2022-12-18T04:24:51.912Z,-3.33
2022-12-18T04:27:19.580Z,-3.35
2022-12-18T04:29:47.202Z,-3.36
2022-12-18T04:32:14.774Z,-3.37
2022-12-18T04:34:42.318Z,-3.36
2022-12-18T04:37:09.929Z,-3.39
2022-12-18T04:39:37.685Z,-3.43
2022-12-18T04:42:05.312Z,-3.47
2022-12-18T04:44:32.884Z,-3.49
2022-12-18T04:47:00.542Z,-3.50
2022-12-18T04:49:28.118Z,-3.52
2022-12-18T04:51:55.901Z,-3.52
2022-12-18T04:54:23.490Z,-3.54
2022-12-18T04:56:51.214Z,-3.56
2022-12-18T04:59:18.799Z,-3.57
2022-12-18T05:01:46.541Z,-3.57
2022-12-18T05:04:14.528Z,-3.55
2022-12-18T05:06:42.103Z,-3.54
2022-12-18T05:09:09.718Z,-3.53
2022-12-18T05:11:37.323Z,-3.52
2022-12-18T05:14:04.939Z,-3.50
2022-12-18T05:16:32.614Z,-3.50
2022-12-18T05:19:00.331Z,-3.48
2022-12-18T05:21:27.894Z,-3.46
2022-12-18T05:23:55.487Z,-3.45
2022-12-18T05:26:23.072Z,-3.47
2022-12-18T05:28:50.639Z,-3.51
2022-12-18T05:31:18.263Z,-3.53
2022-12-18T05:33:45.840Z,-3.56
2022-12-18T05:36:13.462Z,-3.58
2022-12-18T05:38:41.581Z,-3.61
2022-12-18T05:41:10.364Z,-3.63
2022-12-18T05:43:40.572Z,-3.67
2022-12-18T05:46:12.967Z,-3.70
2022-12-18T05:48:40.942Z,-3.76
2022-12-18T05:51:11.085Z,-3.81
2022-12-18T05:53:39.816Z,-3.82
2022-12-18T05:56:14.192Z,-3.84
2022-12-18T05:58:42.127Z,-3.85
2022-12-18T06:01:31.352Z,-3.83
2022-12-18T06:03:59.027Z,-3.80
2022-12-18T06:06:29.056Z,-3.78
2022-12-18T06:08:57.800Z,-3.77
2022-12-18T06:11:27.538Z,-3.74
2022-12-18T06:13:59.072Z,-3.76
2022-12-18T06:16:28.598Z,-3.77
2022-12-18T06:19:04.450Z,-3.80
2022-12-18T06:21:33.372Z,-3.83
2022-12-18T06:24:01.363Z,-3.84
2022-12-18T06:26:29.018Z,-3.85
2022-12-18T06:28:56.787Z,-3.89
2022-12-18T06:31:24.921Z,-3.93
2022-12-18T06:33:52.672Z,-3.95
2022-12-18T06:36:20.233Z,-3.96
2022-12-18T06:38:47.941Z,-3.96
2022-12-18T06:41:18.788Z,-3.96
2022-12-18T06:43:46.396Z,-3.95
2022-12-18T06:46:14.196Z,-3.95
2022-12-18T06:48:41.908Z,-3.96
2022-12-18T06:51:09.574Z,-3.95
2022-12-18T06:53:37.367Z,-3.95
2022-12-18T06:56:10.725Z,-3.94
2022-12-18T06:58:39.973Z,-3.91
2022-12-18T07:01:10.617Z,-3.86
2022-12-18T07:03:40.241Z,-3.80
2022-12-18T07:06:15.375Z,-3.75
2022-12-18T07:08:43.174Z,-3.68
2022-12-18T07:11:10.785Z,-3.62
2022-12-18T07:13:38.877Z,-3.56
2022-12-18T07:16:19.622Z,-3.50
2022-12-18T07:18:51.836Z,-3.43
2022-12-18T07:21:20.738Z,-3.37
2022-12-18T07:23:48.403Z,-3.32
2022-12-18T07:26:19.153Z,-3.26
2022-12-18T07:28:47.104Z,-3.22
2022-12-18T07:31:21.532Z,-3.18
2022-12-18T07:33:51.042Z,-3.14
2022-12-18T07:36:19.422Z,-3.09
2022-12-18T07:38:50.891Z,-3.03
2022-12-18T07:41:18.653Z,-2.97
2022-12-18T07:43:47.974Z,-2.91
2022-12-18T07:46:17.267Z,-2.85
2022-12-18T07:48:49.146Z,-2.80
2022-12-18T07:51:18.687Z,-2.73
2022-12-18T07:53:46.728Z,-2.64
2022-12-18T07:56:32.637Z,-2.55
2022-12-18T07:59:00.624Z,-2.44
2022-12-18T08:01:28.604Z,-2.31
2022-12-18T08:03:56.836Z,-2.20
2022-12-18T08:06:24.886Z,-2.09
2022-12-18T08:08:54.269Z,-2.00
2022-12-18T08:11:22.872Z,-1.87
2022-12-18T08:13:50.884Z,-1.59
2022-12-18T08:16:19.214Z,-1.06
2022-12-18T08:18:48.034Z,-0.06
2022-12-18T08:21:18.924Z,0.50
2022-12-18T08:23:49.252Z,0.88
2022-12-18T08:26:22.049Z,1.45
2022-12-18T08:28:50.937Z,2.09
2022-12-18T08:31:19.777Z,2.63
2022-12-18T08:33:50.381Z,2.46
2022-12-18T08:36:18.203Z,3.23
2022-12-18T08:38:46.137Z,4.48
2022-12-18T08:41:16.575Z,5.49
2022-12-18T08:43:44.261Z,6.55
2022-12-18T08:46:12.556Z,6.74
2022-12-18T08:48:40.275Z,6.77
2022-12-18T08:51:08.023Z,7.60
2022-12-18T08:53:35.978Z,8.72
2022-12-18T08:56:04.507Z,9.12
2022-12-18T08:58:32.161Z,8.39
2022-12-18T09:01:04.503Z,7.19
2022-12-18T09:03:33.372Z,6.43
2022-12-18T09:06:01.019Z,5.76
2022-12-18T09:08:29.401Z,5.45
2022-12-18T09:10:57.055Z,6.60
2022-12-18T09:13:24.874Z,8.57
2022-12-18T09:15:54.669Z,10.15
2022-12-18T09:18:24.271Z,11.69
2022-12-18T09:20:52.169Z,13.05
2022-12-18T09:23:20.770Z,13.99
2022-12-18T09:25:49.140Z,14.50
2022-12-18T09:28:19.173Z,14.68
2022-12-18T09:30:49.470Z,14.22
2022-12-18T09:33:18.081Z,13.36
2022-12-18T09:35:46.886Z,12.45
2022-12-18T09:38:17.470Z,11.70
2022-12-18T09:40:49.007Z,10.99
2022-12-18T09:43:29.295Z,10.56
2022-12-18T09:46:02.252Z,10.19
2022-12-18T09:48:35.672Z,9.93
2022-12-18T09:51:10.136Z,9.59
2022-12-18T09:53:39.728Z,10.09
2022-12-18T09:56:13.228Z,11.77
2022-12-18T09:58:46.162Z,12.00
2022-12-18T10:01:22.453Z,11.23
2022-12-18T10:03:51.521Z,10.80
2022-12-18T10:06:30.217Z,10.93
2022-12-18T10:09:22.356Z,10.34
2022-12-18T10:12:04.234Z,10.31
2022-12-18T10:14:55.883Z,12.28
2022-12-18T10:17:40.940Z,13.49
2022-12-18T10:20:21.946Z,14.23
2022-12-18T10:22:49.466Z,15.59
2022-12-18T10:25:35.503Z,16.49
2022-12-18T10:28:15.761Z,18.15
2022-12-18T10:30:44.245Z,19.78
2022-12-18T10:33:23.752Z,20.17
2022-12-18T10:35:53.204Z,21.10
2022-12-18T10:38:27.628Z,22.20
2022-12-18T10:40:59.509Z,22.92
2022-12-18T10:43:32.578Z,22.83
2022-12-18T10:46:09.036Z,22.80
2022-12-18T10:48:49.904Z,22.88
2022-12-18T10:51:34.371Z,23.30
2022-12-18T10:54:06.462Z,23.95
2022-12-18T10:56:38.891Z,24.63
2022-12-18T10:59:12.558Z,25.06
2022-12-18T11:01:46.599Z,25.73
2022-12-18T11:04:20.028Z,26.54
2022-12-18T11:07:02.852Z,27.33
2022-12-18T11:09:36.162Z,27.55
2022-12-18T11:12:24.358Z,26.64
2022-12-18T11:14:54.374Z,24.79
2022-12-18T11:17:36.663Z,22.62
2022-12-18T11:20:27.354Z,20.51
2022-12-18T11:22:58.202Z,19.15
2022-12-18T11:25:34.607Z,18.90
2022-12-18T11:28:05.341Z,19.41
2022-12-18T11:30:37.690Z,20.52
2022-12-18T11:33:26.612Z,21.68
2022-12-18T11:36:02.895Z,22.84
2022-12-18T11:38:35.309Z,23.57
2022-12-18T11:41:12.604Z,24.02
2022-12-18T11:43:46.094Z,24.40
2022-12-18T11:46:25.107Z,24.27
2022-12-18T11:49:12.670Z,23.93
2022-12-18T11:51:51.416Z,24.36
2022-12-18T11:54:19.250Z,24.26
2022-12-18T11:56:57.199Z,24.41
2022-12-18T12:00:04.669Z,24.44
2022-12-18T12:03:08.018Z,23.63
2022-12-18T12:06:02.713Z,22.72
2022-12-18T12:08:36.311Z,21.64
2022-12-18T12:11:04.014Z,20.93
2022-12-18T12:14:05.954Z,20.76
2022-12-18T12:16:49.209Z,20.10
2022-12-18T12:19:27.494Z,19.09
2022-12-18T12:22:03.820Z,17.75
2022-12-18T12:24:52.762Z,16.83
2022-12-18T12:27:42.006Z,15.95
2022-12-18T12:30:21.594Z,15.35
2022-12-18T12:33:06.371Z,14.87
2022-12-18T12:35:51.321Z,14.73
2022-12-18T12:38:26.333Z,15.12
2022-12-18T12:41:07.015Z,15.11
2022-12-18T12:43:50.275Z,14.85
2022-12-18T12:46:22.708Z,14.84
2022-12-18T12:48:52.545Z,14.55
2022-12-18T12:51:33.701Z,14.01
2022-12-18T12:54:05.218Z,13.68
2022-12-18T12:57:00.265Z,13.63
2022-12-18T12:59:43.147Z,13.29
2022-12-18T13:02:48.556Z,12.34
2022-12-18T13:05:41.442Z,10.87
2022-12-18T13:08:11.763Z,9.75
2022-12-18T13:10:43.781Z,8.98
2022-12-18T13:13:17.131Z,8.28
2022-12-18T13:16:05.188Z,7.69
2022-12-18T13:18:34.747Z,7.16
2022-12-18T13:21:14.312Z,6.69
2022-12-18T13:23:42.391Z,6.27
2022-12-18T13:26:24.784Z,5.95
2022-12-18T13:28:57.705Z,5.61
2022-12-18T13:31:37.204Z,5.22
2022-12-18T13:34:26.837Z,4.88
2022-12-18T13:36:58.061Z,4.56
2022-12-18T13:39:35.417Z,4.34
2022-12-18T13:42:06.459Z,4.13
2022-12-18T13:44:40.663Z,3.90
2022-12-18T13:47:37.455Z,3.64
2022-12-18T13:50:28.549Z,3.40
2022-12-18T13:53:00.356Z,3.21
2022-12-18T13:55:28.026Z,3.07
2022-12-18T13:58:13.677Z,2.93
2022-12-18T14:00:45.010Z,2.81
2022-12-18T14:03:26.148Z,2.72
2022-12-18T14:05:57.530Z,2.65
2022-12-18T14:08:34.954Z,2.56
2022-12-18T14:11:05.136Z,2.44
2022-12-18T14:13:43.301Z,2.34
2022-12-18T14:16:14.960Z,2.23
2022-12-18T14:19:00.967Z,2.14
2022-12-18T14:21:50.753Z,2.05
2022-12-18T14:24:21.407Z,1.94
2022-12-18T14:26:50.839Z,1.87
2022-12-18T14:29:24.417Z,1.79
2022-12-18T14:32:18.127Z,1.69
2022-12-18T14:34:50.252Z,1.60
2022-12-18T14:37:22.638Z,1.53
2022-12-18T14:40:13.672Z,1.45
2022-12-18T14:42:41.296Z,1.37
2022-12-18T14:45:46.512Z,1.29
2022-12-18T14:48:23.557Z,1.18
2022-12-18T14:51:06.525Z,1.08
2022-12-18T14:53:35.993Z,0.97
2022-12-18T14:56:13.330Z,0.86
2022-12-18T14:58:46.348Z,0.74
2022-12-18T15:01:31.957Z,0.63
2022-12-18T15:04:01.886Z,0.52
2022-12-18T15:06:38.536Z,0.43
2022-12-18T15:09:26.807Z,0.32
2022-12-18T15:11:59.420Z,0.20
2022-12-18T15:14:42.608Z,0.09
2022-12-18T15:17:22.983Z,-0.01
2022-12-18T15:20:00.049Z,-0.07
2022-12-18T15:22:29.422Z,-0.14
2022-12-18T15:24:58.966Z,-0.20
2022-12-18T15:27:29.255Z,-0.28
2022-12-18T15:30:08.990Z,-0.36
2022-12-18T15:32:38.334Z,-0.43
2022-12-18T15:35:12.021Z,-0.49
2022-12-18T15:37:39.820Z,-0.54
2022-12-18T15:40:13.290Z,-0.59
2022-12-18T15:42:41.468Z,-0.65
2022-12-18T15:45:13.288Z,-0.70
2022-12-18T15:47:41.621Z,-0.74
2022-12-18T15:50:09.752Z,-0.79
2022-12-18T15:52:44.037Z,-0.84
2022-12-18T15:55:17.382Z,-0.91
2022-12-18T15:57:44.983Z,-0.97
2022-12-18T16:00:13.426Z,-1.03
2022-12-18T16:02:41.225Z,-1.09
2022-12-18T16:05:19.483Z,-1.13
2022-12-18T16:07:47.713Z,-1.18
2022-12-18T16:10:16.110Z,-1.21
2022-12-18T16:12:44.128Z,-1.24
2022-12-18T16:15:14.176Z,-1.29
2022-12-18T16:17:41.802Z,-1.35
2022-12-18T16:20:22.463Z,-1.39
2022-12-18T16:22:50.374Z,-1.45
2022-12-18T16:25:27.116Z,-1.50
2022-12-18T16:27:55.988Z,-1.54
2022-12-18T16:30:32.746Z,-1.58
2022-12-18T16:33:07.521Z,-1.59
2022-12-18T16:35:35.445Z,-1.63
2022-12-18T16:38:03.063Z,-1.65
2022-12-18T16:40:33.101Z,-1.68
2022-12-18T16:43:00.683Z,-1.73
2022-12-18T16:45:28.457Z,-1.78
2022-12-18T16:47:56.055Z,-1.83
2022-12-18T16:50:23.644Z,-1.87
2022-12-18T16:52:51.194Z,-1.92
2022-12-18T16:55:21.804Z,-1.95
2022-12-18T16:57:49.369Z,-1.99
2022-12-18T17:00:17.276Z,-2.01
2022-12-18T17:02:45.027Z,-2.03
2022-12-18T17:05:12.795Z,-2.06
2022-12-18T17:07:40.370Z,-2.08
2022-12-18T17:10:08.214Z,-2.10
2022-12-18T17:12:37.482Z,-2.10
2022-12-18T17:15:05.596Z,-2.09
2022-12-18T17:17:33.297Z,-2.08
2022-12-18T17:20:01.070Z,-2.07
2022-12-18T17:22:28.713Z,-2.07
2022-12-18T17:24:56.296Z,-2.07
2022-12-18T17:27:23.852Z,-2.06
2022-12-18T17:29:51.404Z,-2.06
2022-12-18T17:32:19.012Z,-2.06
2022-12-18T17:34:47.010Z,-2.08
2022-12-18T17:37:14.864Z,-2.10
2022-12-18T17:39:42.628Z,-2.13
2022-12-18T17:42:12.041Z,-2.15
2022-12-18T17:44:44.182Z,-2.17
2022-12-18T17:47:13.368Z,-2.22
2022-12-18T17:49:41.153Z,-2.25
2022-12-18T17:52:09.300Z,-2.29
2022-12-18T17:54:37.488Z,-2.32
2022-12-18T17:57:05.479Z,-2.35
2022-12-18T17:59:33.175Z,-2.40
2022-12-18T18:02:00.928Z,-2.46
2022-12-18T18:04:28.716Z,-2.51
2022-12-18T18:06:56.293Z,-2.56
2022-12-18T18:09:23.976Z,-2.60
2022-12-18T18:11:52.282Z,-2.64
2022-12-18T18:14:22.065Z,-2.69
2022-12-18T18:16:51.502Z,-2.73
2022-12-18T18:19:21.558Z,-2.78
2022-12-18T18:21:53.686Z,-2.80
2022-12-18T18:24:23.560Z,-2.84
2022-12-18T18:26:51.686Z,-2.86
2022-12-18T18:29:23.051Z,-2.88
2022-12-18T18:31:51.000Z,-2.92
2022-12-18T18:34:22.299Z,-2.97
2022-12-18T18:36:50.357Z,-3.03
2022-12-18T18:39:18.600Z,-3.09
2022-12-18T18:41:48.296Z,-3.14
2022-12-18T18:44:18.723Z,-3.17
2022-12-18T18:46:46.949Z,-3.20
2022-12-18T18:49:15.173Z,-3.22
2022-12-18T18:51:42.936Z,-3.25
2022-12-18T18:54:10.760Z,-3.26
2022-12-18T18:57:04.157Z,-3.28
2022-12-18T18:59:31.173Z,-3.28
2022-12-18T19:02:00.767Z,-3.27
2022-12-18T19:04:33.343Z,-3.26
2022-12-18T19:07:01.091Z,-3.25
2022-12-18T19:09:28.810Z,-3.22
2022-12-18T19:11:57.479Z,-3.20
2022-12-18T19:14:25.329Z,-3.17
2022-12-18T19:16:52.993Z,-3.15
2022-12-18T19:19:23.613Z,-3.13
2022-12-18T19:21:51.407Z,-3.12
2022-12-18T19:24:19.022Z,-3.11
2022-12-18T19:26:46.606Z,-3.14
2022-12-18T19:29:14.182Z,-3.15
2022-12-18T19:31:42.027Z,-3.18
2022-12-18T19:34:09.703Z,-3.21
2022-12-18T19:36:39.483Z,-3.24
2022-12-18T19:39:11.194Z,-3.28
2022-12-18T19:41:39.263Z,-3.31
2022-12-18T19:44:08.652Z,-3.34
2022-12-18T19:46:37.124Z,-3.39
2022-12-18T19:49:10.757Z,-3.43
2022-12-18T19:51:39.015Z,-3.50
2022-12-18T19:54:06.632Z,-3.54
2022-12-18T19:56:35.463Z,-3.59
2022-12-18T19:59:04.504Z,-3.65
2022-12-18T20:01:32.629Z,-3.68
2022-12-18T20:04:00.707Z,-3.72
2022-12-18T20:06:32.303Z,-3.76
2022-12-18T20:09:03.315Z,-3.81
2022-12-18T20:11:32.107Z,-3.87
2022-12-18T20:13:59.684Z,-3.89
2022-12-18T20:16:30.223Z,-3.93
2022-12-18T20:18:58.742Z,-3.94
2022-12-18T20:21:26.887Z,-3.96
2022-12-18T20:23:55.058Z,-3.98
2022-12-18T20:26:23.333Z,-4.00
2022-12-18T20:28:50.997Z,-4.00
2022-12-18T20:31:18.962Z,-4.01
2022-12-18T20:33:48.755Z,-3.99
2022-12-18T20:36:22.548Z,-3.97
2022-12-18T20:38:57.190Z,-3.93
2022-12-18T20:41:26.107Z,-3.89
2022-12-18T20:43:55.418Z,-3.86
2022-12-18T20:46:23.139Z,-3.83
2022-12-18T20:48:50.805Z,-3.80
2022-12-18T20:51:20.868Z,-3.77
2022-12-18T20:53:48.862Z,-3.73
2022-12-18T20:56:21.161Z,-3.68
2022-12-18T20:58:51.313Z,-3.65
2022-12-18T21:01:24.408Z,-3.64
2022-12-18T21:03:52.612Z,-3.65
2022-12-18T21:06:22.181Z,-3.66
2022-12-18T21:08:50.060Z,-3.70
2022-12-18T21:11:26.173Z,-3.72
2022-12-18T21:13:54.248Z,-3.77
2022-12-18T21:16:21.893Z,-3.80
2022-12-18T21:18:49.521Z,-3.83
2022-12-18T21:21:21.911Z,-3.87
2022-12-18T21:23:54.763Z,-3.90
2022-12-18T21:26:27.718Z,-3.93
2022-12-18T21:28:58.220Z,-3.96
2022-12-18T21:31:29.069Z,-3.99
2022-12-18T21:34:00.963Z,-4.01
2022-12-18T21:36:31.555Z,-4.01
2022-12-18T21:39:00.098Z,-4.01
2022-12-18T21:41:28.638Z,-4.01
2022-12-18T21:43:56.516Z,-4.02
2022-12-18T21:46:24.238Z,-4.03
2022-12-18T21:48:51.859Z,-4.04
2022-12-18T21:51:19.453Z,-4.04
2022-12-18T21:53:47.060Z,-4.02
2022-12-18T21:56:16.719Z,-3.99
2022-12-18T21:58:56.824Z,-3.95
2022-12-18T22:01:25.150Z,-3.91
2022-12-18T22:04:01.603Z,-3.88
2022-12-18T22:06:29.210Z,-3.83
2022-12-18T22:08:56.821Z,-3.79
2022-12-18T22:11:24.424Z,-3.75
2022-12-18T22:13:52.385Z,-3.73
2022-12-18T22:16:20.001Z,-3.71
2022-12-18T22:18:47.641Z,-3.72
2022-12-18T22:21:42.633Z,-3.74
2022-12-18T22:24:14.921Z,-3.76
2022-12-18T22:26:43.537Z,-3.77
2022-12-18T22:29:14.980Z,-3.77
2022-12-18T22:31:42.852Z,-3.79
2022-12-18T22:34:10.802Z,-3.82
2022-12-18T22:36:47.028Z,-3.86
2022-12-18T22:39:17.873Z,-3.89
2022-12-18T22:41:45.843Z,-3.92
2022-12-18T22:44:15.217Z,-3.94
2022-12-18T22:46:59.677Z,-3.95
2022-12-18T22:49:34.860Z,-3.96
2022-12-18T22:52:07.976Z,-3.96
2022-12-18T22:54:35.755Z,-3.94
2022-12-18T22:57:03.447Z,-3.91
2022-12-18T22:59:31.048Z,-3.86
2022-12-18T23:01:59.583Z,-3.81
2022-12-18T23:04:28.105Z,-3.76
2022-12-18T23:06:59.555Z,-3.70
2022-12-18T23:09:27.373Z,-3.66
2022-12-18T23:11:54.967Z,-3.61
2022-12-18T23:14:22.538Z,-3.57
2022-12-18T23:16:50.436Z,-3.54
2022-12-18T23:19:21.619Z,-3.49
2022-12-18T23:21:51.655Z,-3.44
2022-12-18T23:24:20.517Z,-3.40
2022-12-18T23:26:48.317Z,-3.38
2022-12-18T23:29:15.980Z,-3.41
2022-12-18T23:31:43.553Z,-3.41
2022-12-18T23:34:15.648Z,-3.39
2022-12-18T23:36:46.406Z,-3.39
2022-12-18T23:39:29.017Z,-3.41
2022-12-18T23:41:59.108Z,-3.40
2022-12-18T23:44:27.001Z,-3.36
2022-12-18T23:46:55.673Z,-3.34
2022-12-18T23:49:23.553Z,-3.34
2022-12-18T23:51:54.289Z,-3.33
2022-12-18T23:54:32.770Z,-3.30
2022-12-18T23:57:01.571Z,-3.28
2022-12-18T23:59:29.151Z,-3.27
